Time;durP1;ratioP1;P1;durP2;ratioP2;P2;SDS_P1;SDS_P2;PMS_P1;PMS_P2;Temp;Humidity;BMP_temperature;BMP_pressure;BME280_temperature;BME280_humidity;BME280_pressure;Samples;Min_cycle;Max_cycle;Signal;HPM_P1;HPM_P2
2023/03/08 00:00:48;;;;;;;1.83;1.33;;;1.10;99.90;;;;;;5006957;28;20334;-70
2023/03/08 00:03:15;;;;;;;3.43;1.50;;;1.10;99.90;;;;;;5006856;28;20300;-68
2023/03/08 00:05:42;;;;;;;2.57;1.53;;;1.10;99.90;;;;;;5006078;28;20338;-68
2023/03/08 00:08:11;;;;;;;5.63;3.80;;;1.10;99.90;;;;;;5006411;28;20217;-69
2023/03/08 00:10:38;;;;;;;3.00;2.07;;;1.00;99.90;;;;;;5006697;28;20571;-69
2023/03/08 00:13:05;;;;;;;2.63;1.40;;;1.00;99.90;;;;;;5006404;28;20206;-68
2023/03/08 00:15:32;;;;;;;1.70;1.60;;;1.00;99.90;;;;;;5006685;28;20300;-68
2023/03/08 00:17:58;;;;;;;5.07;1.57;;;0.90;99.90;;;;;;5006042;28;20311;-68
2023/03/08 00:20:25;;;;;;;2.33;1.63;;;1.00;99.90;;;;;;5006009;28;20237;-68
2023/03/08 00:22:53;;;;;;;1.73;1.30;;;0.90;99.90;;;;;;5006129;28;20252;-68
2023/03/08 00:25:21;;;;;;;2.43;1.37;;;0.90;99.90;;;;;;5006520;28;20227;-68
2023/03/08 00:27:48;;;;;;;4.10;1.47;;;0.90;99.90;;;;;;5006183;28;20320;-69
2023/03/08 00:30:15;;;;;;;3.33;2.10;;;0.90;99.90;;;;;;5006582;28;20748;-68
2023/03/08 00:32:42;;;;;;;2.70;1.73;;;0.90;99.90;;;;;;5006018;28;20655;-68
2023/03/08 00:35:10;;;;;;;3.00;1.57;;;0.90;99.90;;;;;;5006477;28;20209;-70
2023/03/08 00:37:37;;;;;;;2.40;1.47;;;0.90;99.90;;;;;;4996459;28;20268;-70
2023/03/08 00:40:04;;;;;;;2.50;1.80;;;0.90;99.90;;;;;;4987363;28;20221;-70
2023/03/08 00:42:33;;;;;;;1.50;1.40;;;0.80;99.90;;;;;;5003477;28;20216;-69
2023/03/08 00:44:59;;;;;;;4.93;1.70;;;0.80;99.90;;;;;;5006744;28;20313;-69
2023/03/08 00:47:26;;;;;;;4.90;1.70;;;0.80;99.90;;;;;;5006722;28;20312;-69
2023/03/08 00:49:53;;;;;;;1.67;1.50;;;0.80;99.90;;;;;;5006577;28;20304;-69
2023/03/08 00:52:20;;;;;;;3.23;1.70;;;0.80;99.90;;;;;;5006483;28;20312;-69
2023/03/08 00:54:47;;;;;;;2.13;1.80;;;0.80;99.90;;;;;;5006396;28;20305;-69
2023/03/08 00:57:15;;;;;;;3.33;1.63;;;0.70;99.90;;;;;;5006615;28;20300;-69
2023/03/08 00:59:43;;;;;;;1.97;1.63;;;0.80;99.90;;;;;;5005806;28;21001;-70
2023/03/08 01:02:10;;;;;;;1.50;1.40;;;0.80;99.90;;;;;;5006268;28;20248;-69
2023/03/08 01:04:37;;;;;;;2.23;1.80;;;0.70;99.90;;;;;;5006095;28;20680;-69
2023/03/08 01:07:04;;;;;;;1.77;1.67;;;0.80;99.90;;;;;;5009893;28;20352;-69
2023/03/08 01:09:31;;;;;;;2.10;1.60;;;0.70;99.90;;;;;;5009769;28;20344;-69
2023/03/08 01:11:58;;;;;;;3.03;1.70;;;0.60;99.90;;;;;;5009813;28;20230;-69
2023/03/08 01:14:24;;;;;;;3.23;1.83;;;0.60;99.90;;;;;;5009644;28;20642;-69
2023/03/08 01:16:53;;;;;;;3.50;2.07;;;0.60;99.90;;;;;;5009746;28;20439;-69
2023/03/08 01:19:20;;;;;;;2.20;2.00;;;0.60;99.90;;;;;;5009851;28;20728;-69
2023/03/08 01:21:46;;;;;;;4.30;2.10;;;0.60;99.90;;;;;;5009558;28;20293;-69
2023/03/08 01:24:13;;;;;;;4.57;2.33;;;0.60;99.90;;;;;;5009696;28;20240;-68
2023/03/08 01:26:40;;;;;;;3.93;2.17;;;0.50;99.90;;;;;;5009825;28;20233;-69
2023/03/08 01:29:07;;;;;;;3.77;2.20;;;0.60;99.90;;;;;;5009663;28;20229;-68
2023/03/08 01:31:34;;;;;;;3.43;2.43;;;0.60;99.90;;;;;;5009384;28;20205;-68
2023/03/08 01:34:02;;;;;;;2.67;2.00;;;0.50;99.90;;;;;;5009787;28;20368;-68
2023/03/08 01:36:29;;;;;;;2.90;2.70;;;0.50;99.90;;;;;;5015429;28;20288;-68
2023/03/08 01:38:56;;;;;;;2.80;2.40;;;0.50;99.90;;;;;;5028900;28;21015;-68
2023/03/08 01:41:25;;;;;;;3.83;2.27;;;0.40;99.90;;;;;;5021353;28;20289;-68
2023/03/08 01:43:52;;;;;;;4.87;2.73;;;0.40;99.90;;;;;;5008818;28;20333;-69
2023/03/08 01:46:30;;;;;;;3.07;2.53;;;0.40;99.90;;;;;;5009062;28;20229;-68
2023/03/08 01:49:05;;;;;;;3.10;2.80;;;0.40;99.90;;;;;;5009244;28;20760;-69
2023/03/08 01:51:37;;;;;;;4.90;2.70;;;0.40;99.90;;;;;;5009003;28;20321;-68
2023/03/08 01:54:09;;;;;;;3.10;2.90;;;0.40;99.90;;;;;;5009027;28;20627;-68
2023/03/08 01:56:37;;;;;;;3.10;2.80;;;0.30;99.90;;;;;;5008803;28;20732;-68
2023/03/08 01:59:04;;;;;;;3.13;2.93;;;0.40;99.90;;;;;;5008096;28;20241;-68
2023/03/08 02:01:33;;;;;;;3.40;3.00;;;0.40;99.90;;;;;;5009196;28;20233;-68
2023/03/08 02:04:00;;;;;;;5.57;3.27;;;0.30;99.90;;;;;;4994497;28;20313;-68
2023/03/08 02:06:28;;;;;;;4.53;2.90;;;0.40;99.90;;;;;;4989320;28;20233;-68
2023/03/08 02:08:56;;;;;;;5.13;4.73;;;0.40;99.90;;;;;;4993073;28;20887;-68
2023/03/08 02:11:24;;;;;;;4.80;3.37;;;0.40;99.90;;;;;;5008562;28;20296;-67
2023/03/08 02:13:52;;;;;;;4.57;3.80;;;0.40;99.90;;;;;;5011670;28;20935;-68
2023/03/08 02:16:21;;;;;;;4.83;3.40;;;0.40;99.90;;;;;;5028142;28;20209;-68
2023/03/08 02:18:56;;;;;;;4.13;3.73;;;0.40;99.90;;;;;;5027903;28;20208;-67
2023/03/08 02:21:24;;;;;;;4.80;3.97;;;0.40;99.90;;;;;;5020797;28;20244;-68
2023/03/08 02:23:53;;;;;;;6.70;4.00;;;0.40;99.90;;;;;;5008322;28;20210;-68
2023/03/08 02:26:20;;;;;;;4.27;3.90;;;0.40;99.90;;;;;;5008728;28;20329;-67
2023/03/08 02:28:47;;;;;;;7.27;4.23;;;0.40;99.90;;;;;;5007817;28;20332;-67
2023/03/08 02:31:15;;;;;;;4.60;3.77;;;0.40;99.90;;;;;;5008345;28;20213;-67
2023/03/08 02:33:42;;;;;;;4.73;4.17;;;0.40;99.90;;;;;;5007788;28;21026;-68
2023/03/08 02:36:10;;;;;;;8.50;4.80;;;0.40;99.90;;;;;;5011374;28;20209;-67
2023/03/08 02:38:37;;;;;;;5.60;4.80;;;0.40;99.90;;;;;;5027562;28;20299;-67
2023/03/08 02:41:06;;;;;;;5.33;4.60;;;0.40;99.90;;;;;;5022742;28;20220;-67
2023/03/08 02:43:33;;;;;;;5.17;4.67;;;0.40;99.90;;;;;;5007939;28;20297;-68
2023/03/08 02:46:00;;;;;;;7.40;4.50;;;0.50;99.90;;;;;;5008102;28;20267;-68
2023/03/08 02:48:26;;;;;;;8.83;5.13;;;0.50;99.90;;;;;;5008207;28;20212;-68
2023/03/08 02:50:53;;;;;;;8.00;5.10;;;0.40;99.90;;;;;;5007409;28;20262;-68
2023/03/08 02:53:20;;;;;;;7.80;5.03;;;0.40;99.90;;;;;;5008196;28;20213;-68
2023/03/08 02:55:47;;;;;;;6.87;4.90;;;0.40;99.90;;;;;;5007558;28;20205;-68
2023/03/08 02:58:15;;;;;;;5.23;4.73;;;0.30;99.90;;;;;;5007779;28;20214;-68
2023/03/08 03:00:42;;;;;;;5.90;5.30;;;0.40;99.90;;;;;;5007924;28;20210;-68
2023/03/08 03:03:09;;;;;;;8.57;4.90;;;0.30;99.90;;;;;;5007649;28;21013;-68
2023/03/08 03:05:41;;;;;;;7.70;5.10;;;0.30;99.90;;;;;;5007881;28;20296;-68
2023/03/08 03:08:07;;;;;;;7.13;5.23;;;0.30;99.90;;;;;;5007373;28;20899;-68
2023/03/08 03:10:35;;;;;;;5.50;4.90;;;0.30;99.90;;;;;;5007467;28;20284;-68
2023/03/08 03:13:02;;;;;;;6.40;4.93;;;0.30;99.90;;;;;;5007403;28;20202;-68
2023/03/08 03:15:31;;;;;;;7.53;5.57;;;0.30;99.90;;;;;;5007667;28;20205;-67
2023/03/08 03:17:58;;;;;;;5.93;5.27;;;0.30;99.90;;;;;;5007520;28;20303;-68
2023/03/08 03:20:25;;;;;;;6.67;5.07;;;0.30;99.90;;;;;;5007841;28;20205;-68
2023/03/08 03:22:52;;;;;;;5.70;5.17;;;0.30;99.90;;;;;;5007627;28;20296;-68
2023/03/08 03:25:19;;;;;;;6.67;5.47;;;0.30;99.90;;;;;;5008024;28;20301;-67
2023/03/08 03:27:46;;;;;;;8.47;5.23;;;0.30;99.90;;;;;;5007099;28;20754;-68
2023/03/08 03:30:13;;;;;;;8.30;5.77;;;0.30;99.90;;;;;;5007665;28;20241;-68
2023/03/08 03:32:41;;;;;;;6.07;5.47;;;0.20;99.90;;;;;;5007389;28;20303;-68
2023/03/08 03:35:09;;;;;;;5.87;5.17;;;0.20;99.90;;;;;;5007462;28;20245;-67
2023/03/08 03:37:36;;;;;;;5.50;5.00;;;0.20;99.90;;;;;;5022602;28;20288;-68
2023/03/08 03:40:03;;;;;;;6.43;5.37;;;0.10;99.90;;;;;;5027119;28;20511;-69
2023/03/08 03:42:30;;;;;;;6.10;5.50;;;0.20;99.90;;;;;;5010671;28;20640;-69
2023/03/08 03:44:57;;;;;;;6.00;5.40;;;0.20;99.90;;;;;;5006643;28;20751;-68
2023/03/08 03:47:24;;;;;;;6.00;5.40;;;0.20;99.90;;;;;;5007181;28;20336;-69
2023/03/08 03:49:52;;;;;;;6.60;5.50;;;0.20;99.90;;;;;;5007114;28;20231;-69
2023/03/08 03:52:19;;;;;;;6.60;6.00;;;0.20;99.90;;;;;;5006838;28;20303;-69
2023/03/08 03:54:46;;;;;;;5.80;5.30;;;0.20;99.90;;;;;;5007181;28;20209;-69
2023/03/08 03:57:12;;;;;;;5.97;5.07;;;0.20;99.90;;;;;;5007519;28;20582;-68
2023/03/08 03:59:39;;;;;;;7.20;5.23;;;0.20;99.90;;;;;;5006819;28;20213;-68
2023/03/08 04:02:06;;;;;;;5.83;5.27;;;0.10;99.90;;;;;;5007214;28;20572;-68
2023/03/08 04:04:33;;;;;;;6.63;5.40;;;0.10;99.90;;;;;;5006945;28;20241;-68
2023/03/08 04:07:01;;;;;;;6.30;5.37;;;0.20;99.90;;;;;;5007357;28;20233;-68
2023/03/08 04:09:28;;;;;;;5.87;5.30;;;0.10;99.90;;;;;;5006880;28;20245;-70
2023/03/08 04:11:55;;;;;;;8.17;5.27;;;0.10;99.90;;;;;;5006743;28;20758;-70
2023/03/08 04:14:22;;;;;;;7.33;5.10;;;0.10;99.90;;;;;;5006992;28;20256;-70
2023/03/08 04:16:49;;;;;;;7.03;5.37;;;0.10;99.90;;;;;;5007048;28;20300;-67
2023/03/08 04:19:16;;;;;;;5.73;5.20;;;0.00;99.90;;;;;;5007379;28;20288;-68
2023/03/08 04:21:42;;;;;;;6.33;4.77;;;0.00;99.90;;;;;;5006739;28;20245;-70
2023/03/08 04:24:11;;;;;;;5.73;5.13;;;0.00;99.90;;;;;;5006899;28;20209;-68
2023/03/08 04:26:37;;;;;;;5.90;5.30;;;0.00;99.90;;;;;;5006587;28;20327;-68
2023/03/08 04:29:05;;;;;;;5.80;5.30;;;0.00;99.90;;;;;;5006443;28;20741;-68
2023/03/08 04:31:34;;;;;;;8.43;5.27;;;0.00;99.90;;;;;;5007040;28;20201;-68
2023/03/08 04:34:01;;;;;;;5.87;4.80;;;0.00;99.90;;;;;;5006443;28;20205;-68
2023/03/08 04:36:28;;;;;;;5.87;5.20;;;0.00;99.90;;;;;;5012355;28;20216;-68
2023/03/08 04:38:55;;;;;;;6.10;5.17;;;0.00;99.90;;;;;;5026597;28;20221;-69
2023/03/08 04:41:24;;;;;;;6.77;5.27;;;0.00;99.90;;;;;;5022100;28;20309;-69
2023/03/08 04:43:52;;;;;;;6.57;5.40;;;0.00;99.90;;;;;;5010082;28;20213;-69
2023/03/08 04:46:22;;;;;;;7.67;5.67;;;0.10;99.90;;;;;;5010743;28;20259;-69
2023/03/08 04:48:51;;;;;;;6.43;5.13;;;0.10;99.90;;;;;;5009950;28;20299;-69
2023/03/08 04:51:18;;;;;;;5.13;4.63;;;0.10;99.90;;;;;;5010298;28;20579;-69
2023/03/08 04:53:46;;;;;;;5.20;4.77;;;0.10;99.90;;;;;;5009961;28;20224;-69
2023/03/08 04:56:15;;;;;;;5.17;4.57;;;0.20;99.90;;;;;;4998555;28;20661;-69
2023/03/08 04:58:44;;;;;;;5.70;5.10;;;0.20;99.90;;;;;;5003023;28;20220;-69
2023/03/08 05:01:12;;;;;;;5.23;4.50;;;0.20;99.90;;;;;;5010150;28;20722;-69
2023/03/08 05:03:39;;;;;;;5.10;4.60;;;0.20;99.90;;;;;;5009837;28;20293;-69
2023/03/08 05:06:07;;;;;;;5.23;4.60;;;0.20;99.90;;;;;;5010389;28;20550;-70
2023/03/08 05:08:34;;;;;;;5.27;4.83;;;0.20;99.90;;;;;;5009779;28;20241;-69
2023/03/08 05:11:03;;;;;;;6.87;4.70;;;0.20;99.90;;;;;;5010210;28;20216;-69
2023/03/08 05:13:33;;;;;;;4.67;4.27;;;0.20;99.90;;;;;;5009592;28;20294;-69
2023/03/08 05:16:01;;;;;;;5.90;4.87;;;0.20;99.90;;;;;;5010233;28;20213;-69
2023/03/08 05:18:28;;;;;;;5.50;4.73;;;0.20;99.90;;;;;;5009907;28;20320;-69
2023/03/08 05:20:57;;;;;;;7.77;4.87;;;0.20;99.90;;;;;;5009994;28;20206;-69
2023/03/08 05:23:24;;;;;;;4.83;4.43;;;0.20;99.90;;;;;;5009895;28;20212;-69
2023/03/08 05:25:53;;;;;;;5.20;4.70;;;0.20;99.90;;;;;;5010006;28;20209;-69
2023/03/08 05:28:20;;;;;;;5.07;4.60;;;0.20;99.90;;;;;;5009574;28;20704;-69
2023/03/08 05:30:47;;;;;;;5.17;4.73;;;0.20;99.90;;;;;;5009890;28;20216;-68
2023/03/08 05:33:16;;;;;;;7.07;5.10;;;0.20;99.90;;;;;;5009692;28;21125;-68
2023/03/08 05:35:43;;;;;;;5.67;4.70;;;0.10;99.90;;;;;;5009262;28;20326;-68
2023/03/08 05:38:10;;;;;;;6.70;4.53;;;0.20;99.90;;;;;;4990108;28;20209;-68
2023/03/08 05:40:38;;;;;;;5.37;4.87;;;0.20;99.90;;;;;;4991129;28;20257;-69
2023/03/08 05:43:05;;;;;;;5.97;4.70;;;0.20;99.90;;;;;;5009394;28;20209;-69
2023/03/08 05:45:32;;;;;;;5.27;4.73;;;0.20;99.90;;;;;;5007557;28;20292;-69
2023/03/08 05:47:59;;;;;;;5.70;4.43;;;0.20;99.90;;;;;;5009594;28;20237;-69
2023/03/08 05:50:27;;;;;;;7.57;5.20;;;0.20;99.90;;;;;;5009527;28;20328;-69
2023/03/08 05:52:54;;;;;;;5.30;4.90;;;0.20;99.90;;;;;;5009278;28;20675;-69
2023/03/08 05:55:21;;;;;;;6.23;4.87;;;0.20;99.90;;;;;;5009147;28;20749;-69
2023/03/08 05:57:48;;;;;;;7.53;4.97;;;0.20;99.90;;;;;;5009098;28;20209;-69
2023/03/08 06:00:16;;;;;;;5.43;4.97;;;0.30;99.90;;;;;;5009394;28;20214;-69
2023/03/08 06:02:45;;;;;;;4.97;4.47;;;0.30;99.90;;;;;;5009329;28;20212;-69
2023/03/08 06:05:12;;;;;;;6.53;4.63;;;0.30;99.90;;;;;;5009191;28;20692;-69
2023/03/08 06:07:42;;;;;;;5.67;5.10;;;0.30;99.90;;;;;;5009036;28;20264;-67
2023/03/08 06:10:10;;;;;;;5.30;4.77;;;0.40;99.90;;;;;;5008526;28;20241;-67
2023/03/08 06:12:37;;;;;;;5.67;5.17;;;0.40;99.90;;;;;;5008841;28;20216;-68
2023/03/08 06:15:05;;;;;;;4.93;4.37;;;0.40;99.90;;;;;;5008733;28;20296;-67
2023/03/08 06:17:32;;;;;;;5.33;4.93;;;0.40;99.90;;;;;;5008839;28;20300;-67
2023/03/08 06:19:58;;;;;;;5.37;4.83;;;0.40;99.90;;;;;;5008915;28;20304;-67
2023/03/08 06:22:25;;;;;;;4.73;4.33;;;0.50;99.90;;;;;;5008904;28;20209;-67
2023/03/08 06:24:53;;;;;;;5.30;4.73;;;0.50;99.90;;;;;;5008473;28;20198;-67
2023/03/08 06:27:20;;;;;;;5.37;4.80;;;0.50;99.90;;;;;;5008567;28;20328;-67
2023/03/08 06:29:49;;;;;;;5.30;4.80;;;0.50;99.90;;;;;;5008278;28;20292;-67
2023/03/08 06:32:16;;;;;;;5.10;4.70;;;0.50;99.90;;;;;;5008819;28;20248;-67
2023/03/08 06:34:43;;;;;;;5.63;5.10;;;0.50;99.90;;;;;;5008395;28;20296;-69
2023/03/08 06:37:10;;;;;;;5.17;4.67;;;0.50;99.90;;;;;;5008082;28;20205;-69
2023/03/08 06:39:37;;;;;;;6.23;4.93;;;0.50;99.90;;;;;;5008299;28;20233;-69
2023/03/08 06:42:06;;;;;;;5.60;5.10;;;0.50;99.90;;;;;;5008213;28;20289;-69
2023/03/08 06:44:33;;;;;;;5.57;5.07;;;0.40;99.90;;;;;;5007918;28;20733;-68
2023/03/08 06:47:00;;;;;;;5.27;4.87;;;0.40;99.90;;;;;;5007710;28;20209;-68
2023/03/08 06:49:27;;;;;;;5.40;4.97;;;0.40;99.90;;;;;;5007801;28;20261;-69
2023/03/08 06:51:54;;;;;;;5.47;5.07;;;0.40;99.90;;;;;;5007751;28;20249;-69
2023/03/08 06:54:21;;;;;;;7.23;5.80;;;0.50;99.90;;;;;;5008095;28;20206;-69
2023/03/08 06:56:48;;;;;;;5.63;5.00;;;0.60;99.90;;;;;;5007852;28;20675;-69
2023/03/08 06:59:16;;;;;;;5.90;5.33;;;0.60;99.90;;;;;;5007444;28;20308;-68
2023/03/08 07:01:43;;;;;;;5.40;4.97;;;0.60;99.90;;;;;;5007859;28;20293;-69
2023/03/08 07:04:10;;;;;;;5.53;4.93;;;0.70;99.90;;;;;;5007179;28;20316;-69
2023/03/08 07:06:36;;;;;;;5.83;5.17;;;0.60;99.90;;;;;;5007674;28;20304;-69
2023/03/08 07:09:03;;;;;;;5.23;4.77;;;0.60;99.90;;;;;;5007220;28;20348;-69
2023/03/08 07:11:32;;;;;;;6.57;5.00;;;0.70;99.90;;;;;;5007847;28;20209;-70
2023/03/08 07:13:59;;;;;;;6.10;5.50;;;0.70;99.90;;;;;;5007226;28;20687;-69
2023/03/08 07:16:28;;;;;;;6.00;5.40;;;0.70;99.90;;;;;;5007691;28;20316;-69
2023/03/08 07:18:55;;;;;;;6.07;5.23;;;0.80;99.90;;;;;;5007040;28;20206;-69
2023/03/08 07:21:22;;;;;;;5.67;5.17;;;0.80;99.90;;;;;;5007476;28;20742;-69
2023/03/08 07:23:51;;;;;;;5.73;5.20;;;0.80;99.90;;;;;;5007281;28;20289;-70
2023/03/08 07:26:18;;;;;;;5.60;5.10;;;0.90;99.90;;;;;;5007018;28;20306;-71
2023/03/08 07:28:48;;;;;;;5.83;5.30;;;1.00;99.90;;;;;;5006787;28;20343;-69
2023/03/08 07:31:15;;;;;;;5.70;5.00;;;1.00;99.90;;;;;;5007337;28;20295;-69
2023/03/08 07:33:43;;;;;;;6.07;5.47;;;1.00;99.90;;;;;;5006901;28;20231;-69
2023/03/08 07:36:10;;;;;;;6.07;5.47;;;1.00;99.90;;;;;;5007482;28;21108;-69
2023/03/08 07:38:37;;;;;;;6.30;5.70;;;1.00;99.90;;;;;;5006627;28;20206;-70
2023/03/08 07:41:04;;;;;;;5.63;5.07;;;1.10;99.90;;;;;;5007035;28;20215;-70
2023/03/08 07:43:31;;;;;;;5.97;5.47;;;1.10;99.90;;;;;;5006961;28;20205;-70
2023/03/08 07:46:01;;;;;;;5.97;5.47;;;1.20;99.90;;;;;;5007068;28;20208;-70
2023/03/08 07:48:28;;;;;;;6.10;5.50;;;1.30;99.90;;;;;;5006782;28;20221;-69
2023/03/08 07:51:02;;;;;;;5.77;5.30;;;1.30;99.90;;;;;;5007085;28;20233;-69
2023/03/08 07:53:29;;;;;;;5.83;5.33;;;1.30;99.90;;;;;;5006822;28;20644;-69
2023/03/08 07:55:58;;;;;;;7.93;5.80;;;1.30;99.90;;;;;;5007253;28;20224;-70
2023/03/08 07:58:24;;;;;;;5.93;5.40;;;1.40;99.90;;;;;;5007350;28;20292;-70
2023/03/08 08:00:51;;;;;;;5.43;4.90;;;1.40;99.90;;;;;;5006932;28;20256;-72
2023/03/08 08:03:18;;;;;;;6.77;5.90;;;1.50;99.90;;;;;;5007262;28;20216;-71
2023/03/08 08:05:45;;;;;;;5.83;5.23;;;1.60;99.90;;;;;;5007124;28;20270;-70
2023/03/08 08:08:13;;;;;;;5.60;5.10;;;1.60;99.90;;;;;;5006821;28;20249;-69
2023/03/08 08:10:40;;;;;;;5.33;4.90;;;1.60;99.90;;;;;;5005761;28;20728;-69
2023/03/08 08:13:07;;;;;;;6.50;5.70;;;1.70;99.90;;;;;;5006078;28;20302;-69
2023/03/08 08:15:34;;;;;;;5.87;5.37;;;1.70;99.90;;;;;;5007337;28;20433;-69
2023/03/08 08:18:01;;;;;;;6.53;5.93;;;1.80;99.90;;;;;;5009837;28;20240;-71
2023/03/08 08:20:30;;;;;;;6.17;5.63;;;1.90;99.90;;;;;;5009756;28;20205;-70
2023/03/08 08:22:56;;;;;;;5.97;5.47;;;1.90;99.90;;;;;;5009203;28;20241;-70
2023/03/08 08:25:25;;;;;;;5.00;4.60;;;1.90;99.90;;;;;;5009574;28;20295;-70
2023/03/08 08:27:52;;;;;;;6.10;5.50;;;2.00;99.90;;;;;;5009400;28;20323;-70
2023/03/08 08:30:19;;;;;;;5.20;4.70;;;2.10;99.90;;;;;;5009835;28;20289;-71
2023/03/08 08:32:46;;;;;;;5.03;4.53;;;2.10;99.90;;;;;;5008725;28;20286;-71
2023/03/08 08:35:13;;;;;;;4.47;4.03;;;2.10;99.90;;;;;;5009252;28;20212;-71
2023/03/08 08:37:40;;;;;;;4.50;4.10;;;2.10;99.90;;;;;;5024490;28;20621;-68
2023/03/08 08:40:10;;;;;;;3.83;3.53;;;2.20;99.90;;;;;;5012022;28;20202;-68
2023/03/08 08:42:38;;;;;;;3.77;3.47;;;2.20;99.90;;;;;;5006909;28;20210;-67
2023/03/08 08:45:06;;;;;;;6.13;3.70;;;2.20;99.90;;;;;;5008948;28;20739;-66
2023/03/08 08:47:33;;;;;;;3.87;3.57;;;2.30;99.90;;;;;;5008612;28;20313;-66
2023/03/08 08:50:00;;;;;;;3.63;3.30;;;2.30;99.90;;;;;;5007770;28;20225;-68
2023/03/08 08:52:26;;;;;;;3.40;3.07;;;2.40;99.90;;;;;;5008184;28;20205;-67
2023/03/08 08:54:53;;;;;;;3.60;2.80;;;2.40;99.90;;;;;;5007901;28;20302;-68
2023/03/08 08:57:20;;;;;;;3.37;2.70;;;2.50;99.90;;;;;;5007977;28;20288;-67
2023/03/08 08:59:48;;;;;;;3.40;3.07;;;2.50;99.90;;;;;;5007431;28;20249;-68
2023/03/08 09:02:15;;;;;;;4.17;2.97;;;2.60;99.90;;;;;;5003860;28;20288;-67
2023/03/08 09:04:42;;;;;;;3.73;2.60;;;2.60;99.90;;;;;;5008159;28;20882;-68
2023/03/08 09:07:09;;;;;;;2.57;2.40;;;2.60;99.90;;;;;;5007650;28;20222;-69
2023/03/08 09:09:36;;;;;;;3.37;2.77;;;2.70;99.90;;;;;;4968751;28;1128250;-69
2023/03/08 09:12:03;;;;;;;3.10;2.50;;;2.70;99.90;;;;;;5008719;28;20282;-68
2023/03/08 09:14:30;;;;;;;2.30;2.10;;;2.80;99.90;;;;;;5008375;28;20303;-67
2023/03/08 09:16:58;;;;;;;3.00;2.10;;;2.80;99.90;;;;;;5006130;28;20763;-67
2023/03/08 09:19:25;;;;;;;2.17;2.07;;;2.90;99.90;;;;;;5008621;28;20701;-68
2023/03/08 09:21:52;;;;;;;3.20;2.53;;;2.90;99.90;;;;;;5008348;28;20300;-68
2023/03/08 09:24:19;;;;;;;2.33;2.13;;;2.90;99.90;;;;;;5009557;28;20283;-69
2023/03/08 09:26:46;;;;;;;3.07;2.87;;;3.00;99.90;;;;;;5008872;28;20251;-69
2023/03/08 09:29:13;;;;;;;3.07;2.80;;;3.00;99.90;;;;;;5008921;28;20240;-66
2023/03/08 09:31:41;;;;;;;2.90;2.70;;;3.10;99.90;;;;;;5008875;28;20332;-67
2023/03/08 09:34:12;;;;;;;2.73;2.53;;;3.10;99.90;;;;;;5009486;28;20275;-67
2023/03/08 09:36:40;;;;;;;2.50;2.40;;;3.00;99.90;;;;;;5009162;28;20205;-67
2023/03/08 09:39:07;;;;;;;3.03;2.27;;;2.90;99.90;;;;;;5008000;28;20292;-67
2023/03/08 09:41:53;;;;;;;2.37;2.17;;;2.90;99.90;;;;;;5007022;28;20229;-67
2023/03/08 09:44:47;;;;;;;2.70;2.50;;;2.80;99.90;;;;;;5007167;28;20273;-67
2023/03/08 09:47:25;;;;;;;2.60;2.40;;;2.90;99.90;;;;;;5007223;28;20961;-67
2023/03/08 09:49:55;;;;;;;2.87;2.50;;;2.90;99.90;;;;;;5006784;28;20237;-67
2023/03/08 09:52:28;;;;;;;2.60;2.50;;;3.10;99.90;;;;;;5006485;28;20205;-67
2023/03/08 09:54:56;;;;;;;2.60;2.50;;;3.10;99.90;;;;;;5006885;28;20635;-67
2023/03/08 09:57:26;;;;;;;2.33;2.23;;;3.10;99.90;;;;;;5007367;28;20205;-67
2023/03/08 09:59:56;;;;;;;3.97;3.10;;;3.10;99.90;;;;;;5007207;28;20281;-67
2023/03/08 10:02:35;;;;;;;3.80;3.50;;;3.30;99.90;;;;;;5007262;28;20204;-67
2023/03/08 10:05:08;;;;;;;3.37;2.50;;;3.40;99.90;;;;;;5007036;28;20193;-68
2023/03/08 10:07:45;;;;;;;2.70;2.10;;;3.60;99.90;;;;;;5006677;28;20202;-67
2023/03/08 10:10:41;;;;;;;2.37;2.17;;;3.70;99.90;;;;;;5006679;28;21101;-68
2023/03/08 10:13:29;;;;;;;2.40;2.20;;;3.80;99.90;;;;;;5005023;28;20308;-68
2023/03/08 10:16:04;;;;;;;2.57;2.30;;;3.80;99.90;;;;;;5006057;28;20294;-68
2023/03/08 10:18:40;;;;;;;3.87;2.43;;;3.80;99.90;;;;;;5007405;28;20201;-68
2023/03/08 10:21:12;;;;;;;2.60;2.40;;;4.00;99.90;;;;;;5007575;28;20284;-68
2023/03/08 10:23:44;;;;;;;3.23;2.40;;;3.90;99.90;;;;;;5006777;28;20656;-72
2023/03/08 10:26:12;;;;;;;2.00;1.90;;;4.00;99.90;;;;;;5006665;28;20288;-68
2023/03/08 10:28:39;;;;;;;2.57;2.37;;;4.00;99.90;;;;;;5006227;28;20233;-67
2023/03/08 10:31:20;;;;;;;2.20;2.10;;;4.00;99.90;;;;;;5006410;28;20304;-67
2023/03/08 10:33:48;;;;;;;2.30;2.20;;;4.10;99.90;;;;;;5006659;28;20193;-68
2023/03/08 10:36:20;;;;;;;3.80;3.17;;;4.10;99.90;;;;;;5010822;28;20761;-68
2023/03/08 10:39:01;;;;;;;2.70;2.50;;;4.10;99.90;;;;;;5011961;28;20190;-68
2023/03/08 10:41:31;;;;;;;6.13;5.50;;;4.10;99.90;;;;;;5002598;28;20290;-67
2023/03/08 10:43:59;;;;;;;3.23;3.00;;;4.10;99.90;;;;;;5007342;28;20312;-68
2023/03/08 10:46:29;;;;;;;2.70;2.50;;;4.10;99.90;;;;;;5007071;28;20613;-68
2023/03/08 10:49:06;;;;;;;2.60;2.40;;;4.10;99.90;;;;;;5006645;28;20252;-68
2023/03/08 10:51:35;;;;;;;2.23;2.13;;;4.00;99.90;;;;;;5006101;28;20198;-68
2023/03/08 10:54:03;;;;;;;2.60;2.40;;;4.00;99.90;;;;;;5006294;28;20208;-67
2023/03/08 10:56:36;;;;;;;2.67;2.47;;;4.10;99.90;;;;;;5006568;28;20205;-68
2023/03/08 10:59:05;;;;;;;2.27;2.10;;;4.10;99.90;;;;;;5006802;28;20289;-68
2023/03/08 11:01:34;;;;;;;2.53;2.40;;;4.20;99.90;;;;;;4999938;28;20844;-68
2023/03/08 11:04:03;;;;;;;2.30;2.20;;;4.30;99.90;;;;;;5003910;28;20301;-68
2023/03/08 11:06:30;;;;;;;2.43;2.23;;;4.40;99.90;;;;;;5006593;28;20973;-68
2023/03/08 11:09:00;;;;;;;2.67;2.47;;;4.40;99.90;;;;;;5005914;28;20711;-67
2023/03/08 11:11:27;;;;;;;2.80;2.60;;;4.40;99.90;;;;;;4998561;28;20306;-68
2023/03/08 11:13:55;;;;;;;2.33;2.23;;;4.40;99.90;;;;;;4988166;28;20739;-66
2023/03/08 11:16:51;;;;;;;2.37;2.20;;;4.40;99.90;;;;;;5005840;28;20304;-68
2023/03/08 11:19:40;;;;;;;3.50;1.73;;;4.40;99.90;;;;;;5005922;28;20357;-67
2023/03/08 11:22:20;;;;;;;2.77;2.50;;;4.50;99.90;;;;;;5005873;28;20221;-68
2023/03/08 11:25:11;;;;;;;2.30;2.20;;;4.50;99.90;;;;;;5006253;28;20208;-67
2023/03/08 11:27:57;;;;;;;2.20;2.10;;;4.60;99.90;;;;;;5005638;28;20656;-68
2023/03/08 11:30:42;;;;;;;2.60;2.40;;;4.60;99.90;;;;;;5005637;28;20779;-67
2023/03/08 11:33:35;;;;;;;2.37;2.27;;;4.60;99.90;;;;;;5002146;28;20209;-68
2023/03/08 11:36:06;;;;;;;2.40;2.30;;;4.60;99.90;;;;;;5007426;28;20297;-68
2023/03/08 11:38:34;;;;;;;2.13;2.03;;;4.60;99.90;;;;;;5008184;28;20247;-67
2023/03/08 11:41:13;;;;;;;2.70;2.30;;;4.60;99.90;;;;;;5001247;28;20224;-68
2023/03/08 11:44:03;;;;;;;2.10;2.00;;;4.60;99.90;;;;;;4985550;28;20627;-68
2023/03/08 11:46:41;;;;;;;1.90;1.80;;;4.60;99.90;;;;;;4989279;28;20227;-69
2023/03/08 11:49:36;;;;;;;2.47;2.00;;;4.50;99.90;;;;;;5005288;28;20349;-68
2023/03/08 11:52:11;;;;;;;2.00;1.80;;;4.60;99.90;;;;;;5005377;28;20288;-68
2023/03/08 11:54:51;;;;;;;3.43;2.00;;;4.60;99.90;;;;;;5005175;28;20193;-68
2023/03/08 11:57:20;;;;;;;2.30;2.07;;;4.50;99.90;;;;;;5005442;28;20220;-68
2023/03/08 11:59:51;;;;;;;2.73;2.20;;;4.50;99.90;;;;;;5005270;28;20573;-68
2023/03/08 12:02:21;;;;;;;2.47;2.00;;;4.60;99.90;;;;;;5004917;28;20201;-68
2023/03/08 12:05:00;;;;;;;2.00;1.90;;;4.60;99.90;;;;;;4985742;28;20728;-68
2023/03/08 12:07:34;;;;;;;2.33;2.17;;;4.50;99.90;;;;;;4986018;28;20294;-67
2023/03/08 12:10:05;;;;;;;1.97;1.87;;;4.40;99.90;;;;;;4995907;28;20693;-67
2023/03/08 12:12:40;;;;;;;2.77;2.07;;;4.50;99.90;;;;;;5005351;28;20296;-67
2023/03/08 12:15:19;;;;;;;4.00;2.17;;;4.50;99.90;;;;;;5004840;28;20284;-67
2023/03/08 12:17:51;;;;;;;2.00;1.80;;;4.50;99.90;;;;;;5005000;28;20296;-67
2023/03/08 12:20:21;;;;;;;3.23;2.10;;;4.50;99.90;;;;;;5005001;28;20182;-67
2023/03/08 12:22:53;;;;;;;2.00;1.80;;;4.60;99.90;;;;;;5004851;28;20213;-67
2023/03/08 12:25:28;;;;;;;2.00;1.90;;;4.60;99.90;;;;;;5004991;28;20204;-67
2023/03/08 12:28:01;;;;;;;2.13;2.03;;;4.60;99.90;;;;;;5004594;28;20201;-68
2023/03/08 12:30:43;;;;;;;2.17;1.97;;;4.60;99.90;;;;;;5004703;28;20687;-67
2023/03/08 12:33:12;;;;;;;3.87;2.10;;;4.60;99.90;;;;;;5004977;28;20281;-67
2023/03/08 12:35:50;;;;;;;2.00;1.90;;;4.60;99.90;;;;;;5005091;28;20214;-67
2023/03/08 12:38:36;;;;;;;2.23;2.13;;;4.70;99.90;;;;;;4985471;28;20197;-67
2023/03/08 12:41:05;;;;;;;2.60;2.40;;;4.60;99.90;;;;;;4990246;28;20243;-67
2023/03/08 12:43:36;;;;;;;3.03;2.30;;;4.60;99.90;;;;;;5005119;28;20240;-67
2023/03/08 12:46:06;;;;;;;4.93;2.10;;;4.60;99.90;;;;;;5005363;28;20205;-67
2023/03/08 12:48:36;;;;;;;2.47;2.27;;;4.60;99.90;;;;;;5005221;28;20225;-67
2023/03/08 12:51:08;;;;;;;2.87;2.40;;;4.50;99.90;;;;;;5004743;28;20233;-67
2023/03/08 12:53:41;;;;;;;2.57;2.47;;;4.50;99.90;;;;;;5004505;28;20704;-68
2023/03/08 12:56:23;;;;;;;2.47;2.27;;;4.50;99.90;;;;;;5004599;28;20291;-67
2023/03/08 12:58:54;;;;;;;2.40;2.20;;;4.50;99.90;;;;;;5004609;28;20197;-67
2023/03/08 13:01:33;;;;;;;2.50;2.30;;;4.40;99.90;;;;;;5005765;28;20206;-67
2023/03/08 13:04:00;;;;;;;2.20;2.10;;;4.40;99.90;;;;;;5008510;28;20810;-67
2023/03/08 13:07:05;;;;;;;2.20;2.10;;;4.40;99.90;;;;;;5008218;28;20285;-67
2023/03/08 13:09:37;;;;;;;2.73;2.53;;;4.40;99.90;;;;;;5007667;28;20725;-67